sensor_id;sensor_type;location;lat;lon;timestamp;P1;durP1;ratioP1;P2;durP2;ratioP2
69226;SDS011;56334;52.398;7.552;2024-02-26T00:00:23;12.00;;;4.90;;
69226;SDS011;56334;52.398;7.552;2024-02-26T00:02:49;11.43;;;5.32;;
69226;SDS011;56334;52.398;7.552;2024-02-26T00:05:15;11.18;;;5.00;;
69226;SDS011;56334;52.398;7.552;2024-02-26T00:07:41;13.15;;;5.82;;
69226;SDS011;56334;52.398;7.552;2024-02-26T00:10:07;11.63;;;5.20;;
69226;SDS011;56334;52.398;7.552;2024-02-26T00:12:34;14.25;;;5.95;;
69226;SDS011;56334;52.398;7.552;2024-02-26T00:15:00;11.60;;;5.03;;
69226;SDS011;56334;52.398;7.552;2024-02-26T00:17:26;11.43;;;5.28;;
69226;SDS011;56334;52.398;7.552;2024-02-26T00:19:52;12.07;;;5.00;;
69226;SDS011;56334;52.398;7.552;2024-02-26T00:22:18;10.30;;;4.88;;
69226;SDS011;56334;52.398;7.552;2024-02-26T00:24:44;11.88;;;5.22;;
69226;SDS011;56334;52.398;7.552;2024-02-26T00:27:10;11.57;;;4.82;;
69226;SDS011;56334;52.398;7.552;2024-02-26T00:29:36;10.85;;;4.50;;
69226;SDS011;56334;52.398;7.552;2024-02-26T00:32:02;12.23;;;5.05;;
69226;SDS011;56334;52.398;7.552;2024-02-26T00:34:28;12.23;;;4.78;;
69226;SDS011;56334;52.398;7.552;2024-02-26T00:36:54;10.70;;;4.55;;
69226;SDS011;56334;52.398;7.552;2024-02-26T00:39:20;12.43;;;5.00;;
69226;SDS011;56334;52.398;7.552;2024-02-26T00:41:46;10.98;;;4.80;;
69226;SDS011;56334;52.398;7.552;2024-02-26T00:44:12;11.52;;;5.13;;
69226;SDS011;56334;52.398;7.552;2024-02-26T00:46:38;10.30;;;4.38;;
69226;SDS011;56334;52.398;7.552;2024-02-26T00:49:04;13.18;;;5.05;;
69226;SDS011;56334;52.398;7.552;2024-02-26T00:51:31;11.52;;;4.68;;
69226;SDS011;56334;52.398;7.552;2024-02-26T00:53:56;10.35;;;5.00;;
69226;SDS011;56334;52.398;7.552;2024-02-26T00:56:22;11.23;;;4.80;;
69226;SDS011;56334;52.398;7.552;2024-02-26T00:58:49;10.80;;;5.22;;
69226;SDS011;56334;52.398;7.552;2024-02-26T01:01:15;11.80;;;4.85;;
69226;SDS011;56334;52.398;7.552;2024-02-26T01:03:41;11.13;;;4.50;;
69226;SDS011;56334;52.398;7.552;2024-02-26T01:06:07;11.15;;;4.57;;
69226;SDS011;56334;52.398;7.552;2024-02-26T01:08:33;11.10;;;4.75;;
69226;SDS011;56334;52.398;7.552;2024-02-26T01:11:02;11.82;;;4.93;;
69226;SDS011;56334;52.398;7.552;2024-02-26T01:13:28;11.45;;;4.90;;
69226;SDS011;56334;52.398;7.552;2024-02-26T01:15:54;11.90;;;4.90;;
69226;SDS011;56334;52.398;7.552;2024-02-26T01:18:20;12.63;;;5.40;;
69226;SDS011;56334;52.398;7.552;2024-02-26T01:20:47;11.90;;;4.85;;
69226;SDS011;56334;52.398;7.552;2024-02-26T01:23:13;11.27;;;5.20;;
69226;SDS011;56334;52.398;7.552;2024-02-26T01:25:39;12.02;;;5.30;;
69226;SDS011;56334;52.398;7.552;2024-02-26T01:28:05;11.52;;;4.55;;
69226;SDS011;56334;52.398;7.552;2024-02-26T01:30:32;11.48;;;5.22;;
69226;SDS011;56334;52.398;7.552;2024-02-26T01:32:58;10.77;;;4.95;;
69226;SDS011;56334;52.398;7.552;2024-02-26T01:35:24;10.82;;;4.95;;
69226;SDS011;56334;52.398;7.552;2024-02-26T01:37:50;11.50;;;4.97;;
69226;SDS011;56334;52.398;7.552;2024-02-26T01:40:17;12.40;;;5.10;;
69226;SDS011;56334;52.398;7.552;2024-02-26T01:42:45;11.38;;;5.00;;
69226;SDS011;56334;52.398;7.552;2024-02-26T01:45:13;10.48;;;4.65;;
69226;SDS011;56334;52.398;7.552;2024-02-26T01:47:41;10.70;;;4.72;;
69226;SDS011;56334;52.398;7.552;2024-02-26T01:50:07;13.13;;;5.18;;
69226;SDS011;56334;52.398;7.552;2024-02-26T01:52:34;11.05;;;4.28;;
69226;SDS011;56334;52.398;7.552;2024-02-26T01:55:00;10.38;;;4.47;;
69226;SDS011;56334;52.398;7.552;2024-02-26T01:57:27;10.93;;;4.78;;
69226;SDS011;56334;52.398;7.552;2024-02-26T01:59:53;11.02;;;4.65;;
69226;SDS011;56334;52.398;7.552;2024-02-26T02:02:20;12.32;;;4.78;;
69226;SDS011;56334;52.398;7.552;2024-02-26T02:04:46;10.25;;;4.40;;
69226;SDS011;56334;52.398;7.552;2024-02-26T02:07:12;11.07;;;4.13;;
69226;SDS011;56334;52.398;7.552;2024-02-26T02:09:38;10.65;;;4.18;;
69226;SDS011;56334;52.398;7.552;2024-02-26T02:12:05;10.75;;;4.65;;
69226;SDS011;56334;52.398;7.552;2024-02-26T02:14:31;12.38;;;4.72;;
69226;SDS011;56334;52.398;7.552;2024-02-26T02:16:57;12.93;;;4.63;;
69226;SDS011;56334;52.398;7.552;2024-02-26T02:19:23;10.43;;;4.10;;
69226;SDS011;56334;52.398;7.552;2024-02-26T02:21:49;10.43;;;4.30;;
69226;SDS011;56334;52.398;7.552;2024-02-26T02:24:15;10.32;;;4.32;;
69226;SDS011;56334;52.398;7.552;2024-02-26T02:26:41;11.30;;;4.40;;
69226;SDS011;56334;52.398;7.552;2024-02-26T02:29:07;11.73;;;4.72;;
69226;SDS011;56334;52.398;7.552;2024-02-26T02:31:34;9.88;;;4.35;;
69226;SDS011;56334;52.398;7.552;2024-02-26T02:34:00;11.32;;;4.72;;
69226;SDS011;56334;52.398;7.552;2024-02-26T02:36:26;11.88;;;4.53;;
69226;SDS011;56334;52.398;7.552;2024-02-26T02:38:52;10.52;;;3.90;;
69226;SDS011;56334;52.398;7.552;2024-02-26T02:41:18;11.95;;;4.93;;
69226;SDS011;56334;52.398;7.552;2024-02-26T02:43:45;11.00;;;4.40;;
69226;SDS011;56334;52.398;7.552;2024-02-26T02:46:11;10.88;;;4.60;;
69226;SDS011;56334;52.398;7.552;2024-02-26T02:48:37;9.93;;;4.18;;
69226;SDS011;56334;52.398;7.552;2024-02-26T02:51:03;10.98;;;4.45;;
69226;SDS011;56334;52.398;7.552;2024-02-26T02:53:29;10.43;;;4.15;;
69226;SDS011;56334;52.398;7.552;2024-02-26T02:55:55;11.13;;;4.38;;
69226;SDS011;56334;52.398;7.552;2024-02-26T02:58:21;11.63;;;5.00;;
69226;SDS011;56334;52.398;7.552;2024-02-26T03:00:47;10.55;;;4.38;;
69226;SDS011;56334;52.398;7.552;2024-02-26T03:03:13;10.45;;;4.20;;
69226;SDS011;56334;52.398;7.552;2024-02-26T03:05:39;10.05;;;4.38;;
69226;SDS011;56334;52.398;7.552;2024-02-26T03:08:05;11.02;;;4.25;;
69226;SDS011;56334;52.398;7.552;2024-02-26T03:10:31;10.93;;;4.90;;
69226;SDS011;56334;52.398;7.552;2024-02-26T03:12:57;9.50;;;3.83;;
69226;SDS011;56334;52.398;7.552;2024-02-26T03:15:23;9.82;;;4.30;;
69226;SDS011;56334;52.398;7.552;2024-02-26T03:17:49;9.50;;;4.18;;
69226;SDS011;56334;52.398;7.552;2024-02-26T03:20:15;11.90;;;4.25;;
69226;SDS011;56334;52.398;7.552;2024-02-26T03:22:44;9.82;;;4.13;;
69226;SDS011;56334;52.398;7.552;2024-02-26T03:25:10;10.10;;;4.20;;
69226;SDS011;56334;52.398;7.552;2024-02-26T03:27:36;9.80;;;4.00;;
69226;SDS011;56334;52.398;7.552;2024-02-26T03:30:02;11.65;;;3.90;;
69226;SDS011;56334;52.398;7.552;2024-02-26T03:32:28;9.57;;;3.75;;
69226;SDS011;56334;52.398;7.552;2024-02-26T03:34:54;8.65;;;3.78;;
69226;SDS011;56334;52.398;7.552;2024-02-26T03:37:21;9.85;;;4.20;;
69226;SDS011;56334;52.398;7.552;2024-02-26T03:39:46;12.98;;;5.68;;
69226;SDS011;56334;52.398;7.552;2024-02-26T03:42:13;9.30;;;3.63;;
69226;SDS011;56334;52.398;7.552;2024-02-26T03:44:38;9.93;;;3.90;;
69226;SDS011;56334;52.398;7.552;2024-02-26T03:47:04;9.52;;;3.55;;
69226;SDS011;56334;52.398;7.552;2024-02-26T03:49:30;9.70;;;3.88;;
69226;SDS011;56334;52.398;7.552;2024-02-26T03:51:56;9.23;;;4.00;;
69226;SDS011;56334;52.398;7.552;2024-02-26T03:54:22;8.57;;;3.38;;
69226;SDS011;56334;52.398;7.552;2024-02-26T03:56:48;8.85;;;3.80;;
69226;SDS011;56334;52.398;7.552;2024-02-26T03:59:14;10.55;;;3.50;;
69226;SDS011;56334;52.398;7.552;2024-02-26T04:01:44;8.75;;;3.22;;
69226;SDS011;56334;52.398;7.552;2024-02-26T04:04:12;8.43;;;3.45;;
69226;SDS011;56334;52.398;7.552;2024-02-26T04:06:38;8.68;;;3.60;;
69226;SDS011;56334;52.398;7.552;2024-02-26T04:09:04;8.30;;;3.40;;
69226;SDS011;56334;52.398;7.552;2024-02-26T04:11:30;8.32;;;3.40;;
69226;SDS011;56334;52.398;7.552;2024-02-26T04:13:56;10.07;;;3.97;;
69226;SDS011;56334;52.398;7.552;2024-02-26T04:16:22;9.00;;;3.65;;
69226;SDS011;56334;52.398;7.552;2024-02-26T04:18:48;8.77;;;3.58;;
69226;SDS011;56334;52.398;7.552;2024-02-26T04:21:14;9.20;;;3.78;;
69226;SDS011;56334;52.398;7.552;2024-02-26T04:23:40;8.18;;;3.50;;
69226;SDS011;56334;52.398;7.552;2024-02-26T04:26:06;9.35;;;3.78;;
69226;SDS011;56334;52.398;7.552;2024-02-26T04:28:32;10.60;;;5.00;;
69226;SDS011;56334;52.398;7.552;2024-02-26T04:30:58;9.68;;;4.10;;
69226;SDS011;56334;52.398;7.552;2024-02-26T04:33:24;8.52;;;3.83;;
69226;SDS011;56334;52.398;7.552;2024-02-26T04:35:50;10.35;;;4.30;;
69226;SDS011;56334;52.398;7.552;2024-02-26T04:38:16;11.50;;;4.50;;
69226;SDS011;56334;52.398;7.552;2024-02-26T04:40:42;9.75;;;4.40;;
69226;SDS011;56334;52.398;7.552;2024-02-26T04:43:08;10.98;;;4.50;;
69226;SDS011;56334;52.398;7.552;2024-02-26T04:45:34;9.70;;;4.07;;
69226;SDS011;56334;52.398;7.552;2024-02-26T04:48:00;10.32;;;3.92;;
69226;SDS011;56334;52.398;7.552;2024-02-26T04:50:26;8.52;;;3.97;;
69226;SDS011;56334;52.398;7.552;2024-02-26T04:52:52;9.55;;;3.97;;
69226;SDS011;56334;52.398;7.552;2024-02-26T04:55:18;9.40;;;4.15;;
69226;SDS011;56334;52.398;7.552;2024-02-26T04:57:44;10.27;;;4.72;;
69226;SDS011;56334;52.398;7.552;2024-02-26T05:00:10;9.93;;;3.80;;
69226;SDS011;56334;52.398;7.552;2024-02-26T05:02:36;9.52;;;4.00;;
69226;SDS011;56334;52.398;7.552;2024-02-26T05:05:06;9.57;;;4.18;;
69226;SDS011;56334;52.398;7.552;2024-02-26T05:07:33;8.82;;;3.63;;
69226;SDS011;56334;52.398;7.552;2024-02-26T05:09:59;9.40;;;4.07;;
69226;SDS011;56334;52.398;7.552;2024-02-26T05:12:25;10.85;;;4.10;;
69226;SDS011;56334;52.398;7.552;2024-02-26T05:14:51;9.93;;;3.97;;
69226;SDS011;56334;52.398;7.552;2024-02-26T05:17:17;8.95;;;3.80;;
69226;SDS011;56334;52.398;7.552;2024-02-26T05:19:43;9.13;;;3.90;;
69226;SDS011;56334;52.398;7.552;2024-02-26T05:22:09;9.05;;;3.90;;
69226;SDS011;56334;52.398;7.552;2024-02-26T05:24:37;8.52;;;3.65;;
69226;SDS011;56334;52.398;7.552;2024-02-26T05:27:04;8.93;;;3.60;;
69226;SDS011;56334;52.398;7.552;2024-02-26T05:29:30;9.98;;;4.05;;
69226;SDS011;56334;52.398;7.552;2024-02-26T05:31:56;11.35;;;3.65;;
69226;SDS011;56334;52.398;7.552;2024-02-26T05:34:22;8.63;;;3.47;;
69226;SDS011;56334;52.398;7.552;2024-02-26T05:36:48;9.80;;;3.53;;
69226;SDS011;56334;52.398;7.552;2024-02-26T05:39:14;8.85;;;3.58;;
69226;SDS011;56334;52.398;7.552;2024-02-26T05:41:41;9.73;;;3.58;;
69226;SDS011;56334;52.398;7.552;2024-02-26T05:44:08;9.65;;;4.15;;
69226;SDS011;56334;52.398;7.552;2024-02-26T05:46:35;10.40;;;3.80;;
69226;SDS011;56334;52.398;7.552;2024-02-26T05:49:01;8.88;;;3.60;;
69226;SDS011;56334;52.398;7.552;2024-02-26T05:51:28;9.95;;;3.88;;
69226;SDS011;56334;52.398;7.552;2024-02-26T05:53:54;9.85;;;4.00;;
69226;SDS011;56334;52.398;7.552;2024-02-26T05:56:23;8.77;;;3.70;;
69226;SDS011;56334;52.398;7.552;2024-02-26T05:58:49;9.80;;;3.78;;
69226;SDS011;56334;52.398;7.552;2024-02-26T06:01:15;13.00;;;4.47;;
69226;SDS011;56334;52.398;7.552;2024-02-26T06:03:44;10.82;;;4.30;;
69226;SDS011;56334;52.398;7.552;2024-02-26T06:06:10;10.00;;;4.00;;
69226;SDS011;56334;52.398;7.552;2024-02-26T06:08:36;10.75;;;4.13;;
69226;SDS011;56334;52.398;7.552;2024-02-26T06:11:06;9.80;;;4.13;;
69226;SDS011;56334;52.398;7.552;2024-02-26T06:13:33;9.50;;;3.85;;
69226;SDS011;56334;52.398;7.552;2024-02-26T06:15:59;9.40;;;4.07;;
69226;SDS011;56334;52.398;7.552;2024-02-26T06:18:25;10.13;;;4.00;;
69226;SDS011;56334;52.398;7.552;2024-02-26T06:20:51;9.45;;;3.95;;
69226;SDS011;56334;52.398;7.552;2024-02-26T06:23:18;10.80;;;4.20;;
69226;SDS011;56334;52.398;7.552;2024-02-26T06:25:44;10.77;;;4.35;;
69226;SDS011;56334;52.398;7.552;2024-02-26T06:28:12;10.02;;;4.30;;
69226;SDS011;56334;52.398;7.552;2024-02-26T06:30:38;9.93;;;3.90;;
69226;SDS011;56334;52.398;7.552;2024-02-26T06:33:04;11.30;;;4.72;;
69226;SDS011;56334;52.398;7.552;2024-02-26T06:35:31;12.25;;;4.70;;
69226;SDS011;56334;52.398;7.552;2024-02-26T06:37:57;12.63;;;5.35;;
69226;SDS011;56334;52.398;7.552;2024-02-26T06:40:23;16.40;;;5.28;;
69226;SDS011;56334;52.398;7.552;2024-02-26T06:42:50;10.27;;;4.43;;
69226;SDS011;56334;52.398;7.552;2024-02-26T06:45:16;10.77;;;4.97;;
69226;SDS011;56334;52.398;7.552;2024-02-26T06:47:44;10.45;;;4.55;;
69226;SDS011;56334;52.398;7.552;2024-02-26T06:50:11;11.38;;;4.88;;
69226;SDS011;56334;52.398;7.552;2024-02-26T06:52:39;11.05;;;4.75;;
69226;SDS011;56334;52.398;7.552;2024-02-26T06:55:05;12.40;;;4.97;;
69226;SDS011;56334;52.398;7.552;2024-02-26T06:57:33;11.73;;;4.50;;
69226;SDS011;56334;52.398;7.552;2024-02-26T06:59:59;10.98;;;4.72;;
69226;SDS011;56334;52.398;7.552;2024-02-26T07:02:25;12.45;;;4.43;;
69226;SDS011;56334;52.398;7.552;2024-02-26T07:04:51;10.23;;;4.47;;
69226;SDS011;56334;52.398;7.552;2024-02-26T07:07:17;14.05;;;5.43;;
69226;SDS011;56334;52.398;7.552;2024-02-26T07:09:43;11.18;;;4.88;;
69226;SDS011;56334;52.398;7.552;2024-02-26T07:12:09;12.88;;;5.43;;
69226;SDS011;56334;52.398;7.552;2024-02-26T07:14:35;10.77;;;5.00;;
69226;SDS011;56334;52.398;7.552;2024-02-26T07:17:02;11.15;;;4.72;;
69226;SDS011;56334;52.398;7.552;2024-02-26T07:19:28;12.50;;;5.70;;
69226;SDS011;56334;52.398;7.552;2024-02-26T07:21:54;11.73;;;5.45;;
69226;SDS011;56334;52.398;7.552;2024-02-26T07:24:20;13.30;;;5.43;;
69226;SDS011;56334;52.398;7.552;2024-02-26T07:26:46;11.65;;;5.32;;
69226;SDS011;56334;52.398;7.552;2024-02-26T07:29:13;12.48;;;5.22;;
69226;SDS011;56334;52.398;7.552;2024-02-26T07:31:39;13.65;;;5.72;;
69226;SDS011;56334;52.398;7.552;2024-02-26T07:34:05;12.73;;;5.65;;
69226;SDS011;56334;52.398;7.552;2024-02-26T07:36:31;12.38;;;5.38;;
69226;SDS011;56334;52.398;7.552;2024-02-26T07:38:57;11.57;;;5.32;;
69226;SDS011;56334;52.398;7.552;2024-02-26T07:41:23;12.95;;;5.53;;
69226;SDS011;56334;52.398;7.552;2024-02-26T07:43:49;12.07;;;5.35;;
69226;SDS011;56334;52.398;7.552;2024-02-26T07:46:15;13.13;;;5.78;;
69226;SDS011;56334;52.398;7.552;2024-02-26T07:48:41;12.00;;;5.72;;
69226;SDS011;56334;52.398;7.552;2024-02-26T07:51:08;14.18;;;6.10;;
69226;SDS011;56334;52.398;7.552;2024-02-26T07:53:34;13.90;;;5.97;;
69226;SDS011;56334;52.398;7.552;2024-02-26T07:56:00;11.93;;;5.50;;
69226;SDS011;56334;52.398;7.552;2024-02-26T08:00:54;11.75;;;5.38;;
69226;SDS011;56334;52.398;7.552;2024-02-26T08:03:20;12.02;;;5.13;;
69226;SDS011;56334;52.398;7.552;2024-02-26T08:05:46;13.43;;;5.93;;
69226;SDS011;56334;52.398;7.552;2024-02-26T08:08:12;13.70;;;5.38;;
69226;SDS011;56334;52.398;7.552;2024-02-26T08:10:38;12.93;;;6.22;;
69226;SDS011;56334;52.398;7.552;2024-02-26T08:13:04;12.82;;;5.15;;
69226;SDS011;56334;52.398;7.552;2024-02-26T08:15:31;13.68;;;5.38;;
69226;SDS011;56334;52.398;7.552;2024-02-26T08:17:59;13.40;;;5.63;;
69226;SDS011;56334;52.398;7.552;2024-02-26T08:20:27;11.68;;;5.00;;
69226;SDS011;56334;52.398;7.552;2024-02-26T08:22:53;12.50;;;4.93;;
69226;SDS011;56334;52.398;7.552;2024-02-26T08:25:19;12.50;;;5.30;;
69226;SDS011;56334;52.398;7.552;2024-02-26T08:27:46;11.18;;;5.07;;
69226;SDS011;56334;52.398;7.552;2024-02-26T08:30:13;11.80;;;4.72;;
69226;SDS011;56334;52.398;7.552;2024-02-26T08:32:41;13.07;;;5.25;;
69226;SDS011;56334;52.398;7.552;2024-02-26T08:35:07;12.07;;;5.25;;
69226;SDS011;56334;52.398;7.552;2024-02-26T08:37:33;11.68;;;5.07;;
69226;SDS011;56334;52.398;7.552;2024-02-26T08:39:59;12.45;;;5.03;;
69226;SDS011;56334;52.398;7.552;2024-02-26T08:42:25;11.65;;;5.00;;
69226;SDS011;56334;52.398;7.552;2024-02-26T08:44:51;12.02;;;5.68;;
69226;SDS011;56334;52.398;7.552;2024-02-26T08:47:19;11.18;;;4.95;;
69226;SDS011;56334;52.398;7.552;2024-02-26T08:49:45;12.50;;;5.40;;
69226;SDS011;56334;52.398;7.552;2024-02-26T08:52:11;13.98;;;5.30;;
69226;SDS011;56334;52.398;7.552;2024-02-26T08:54:38;12.40;;;5.47;;
69226;SDS011;56334;52.398;7.552;2024-02-26T08:57:05;12.25;;;5.30;;
69226;SDS011;56334;52.398;7.552;2024-02-26T08:59:31;12.30;;;5.18;;
69226;SDS011;56334;52.398;7.552;2024-02-26T09:01:57;11.80;;;4.82;;
69226;SDS011;56334;52.398;7.552;2024-02-26T09:04:23;13.40;;;5.75;;
69226;SDS011;56334;52.398;7.552;2024-02-26T09:06:49;13.30;;;6.20;;
69226;SDS011;56334;52.398;7.552;2024-02-26T09:09:15;12.32;;;5.68;;
69226;SDS011;56334;52.398;7.552;2024-02-26T09:11:41;14.77;;;6.03;;
69226;SDS011;56334;52.398;7.552;2024-02-26T09:14:07;11.90;;;5.55;;
69226;SDS011;56334;52.398;7.552;2024-02-26T09:16:33;12.55;;;5.35;;
69226;SDS011;56334;52.398;7.552;2024-02-26T09:18:59;12.65;;;5.97;;
69226;SDS011;56334;52.398;7.552;2024-02-26T09:21:26;14.93;;;6.07;;
69226;SDS011;56334;52.398;7.552;2024-02-26T09:23:52;12.52;;;5.90;;
69226;SDS011;56334;52.398;7.552;2024-02-26T09:26:18;13.35;;;5.80;;
69226;SDS011;56334;52.398;7.552;2024-02-26T09:28:44;14.70;;;6.15;;
69226;SDS011;56334;52.398;7.552;2024-02-26T09:31:11;13.90;;;6.03;;
69226;SDS011;56334;52.398;7.552;2024-02-26T09:33:37;13.20;;;6.00;;
69226;SDS011;56334;52.398;7.552;2024-02-26T09:36:03;13.30;;;6.13;;
69226;SDS011;56334;52.398;7.552;2024-02-26T09:38:31;16.02;;;7.03;;
69226;SDS011;56334;52.398;7.552;2024-02-26T09:41:02;17.27;;;8.07;;
69226;SDS011;56334;52.398;7.552;2024-02-26T09:43:28;21.25;;;10.15;;
69226;SDS011;56334;52.398;7.552;2024-02-26T09:45:58;16.73;;;9.23;;
69226;SDS011;56334;52.398;7.552;2024-02-26T09:48:24;18.00;;;7.88;;
69226;SDS011;56334;52.398;7.552;2024-02-26T09:50:50;18.48;;;7.78;;
69226;SDS011;56334;52.398;7.552;2024-02-26T09:53:17;18.17;;;6.97;;
69226;SDS011;56334;52.398;7.552;2024-02-26T09:55:44;15.48;;;6.88;;
69226;SDS011;56334;52.398;7.552;2024-02-26T09:58:10;16.70;;;7.90;;
69226;SDS011;56334;52.398;7.552;2024-02-26T10:00:39;17.83;;;7.35;;
69226;SDS011;56334;52.398;7.552;2024-02-26T10:03:06;17.02;;;7.18;;
69226;SDS011;56334;52.398;7.552;2024-02-26T10:05:35;18.00;;;7.32;;
69226;SDS011;56334;52.398;7.552;2024-02-26T10:08:03;18.30;;;7.60;;
69226;SDS011;56334;52.398;7.552;2024-02-26T10:10:29;18.23;;;7.97;;
69226;SDS011;56334;52.398;7.552;2024-02-26T10:12:56;19.73;;;8.32;;
69226;SDS011;56334;52.398;7.552;2024-02-26T10:15:22;23.05;;;9.50;;
69226;SDS011;56334;52.398;7.552;2024-02-26T10:17:48;20.67;;;9.85;;
69226;SDS011;56334;52.398;7.552;2024-02-26T10:20:15;18.60;;;8.70;;
69226;SDS011;56334;52.398;7.552;2024-02-26T10:22:42;19.70;;;8.68;;
69226;SDS011;56334;52.398;7.552;2024-02-26T10:25:08;19.67;;;8.35;;
69226;SDS011;56334;52.398;7.552;2024-02-26T10:27:35;22.63;;;9.82;;
69226;SDS011;56334;52.398;7.552;2024-02-26T10:30:04;19.10;;;8.70;;
69226;SDS011;56334;52.398;7.552;2024-02-26T10:32:30;21.15;;;9.38;;
69226;SDS011;56334;52.398;7.552;2024-02-26T10:34:58;20.67;;;9.30;;
69226;SDS011;56334;52.398;7.552;2024-02-26T10:37:24;21.92;;;9.35;;
69226;SDS011;56334;52.398;7.552;2024-02-26T10:39:50;20.17;;;8.32;;
69226;SDS011;56334;52.398;7.552;2024-02-26T10:42:16;21.80;;;9.77;;
69226;SDS011;56334;52.398;7.552;2024-02-26T10:44:44;20.40;;;8.57;;
69226;SDS011;56334;52.398;7.552;2024-02-26T10:47:10;20.23;;;9.52;;
69226;SDS011;56334;52.398;7.552;2024-02-26T10:49:36;20.98;;;8.98;;
69226;SDS011;56334;52.398;7.552;2024-02-26T10:52:03;20.92;;;8.85;;
69226;SDS011;56334;52.398;7.552;2024-02-26T10:54:31;23.52;;;9.10;;
69226;SDS011;56334;52.398;7.552;2024-02-26T10:56:58;20.77;;;8.65;;
69226;SDS011;56334;52.398;7.552;2024-02-26T10:59:24;19.30;;;8.27;;
69226;SDS011;56334;52.398;7.552;2024-02-26T11:01:51;19.83;;;8.35;;
69226;SDS011;56334;52.398;7.552;2024-02-26T11:04:17;21.50;;;9.60;;
69226;SDS011;56334;52.398;7.552;2024-02-26T11:06:45;20.17;;;8.93;;
69226;SDS011;56334;52.398;7.552;2024-02-26T11:09:12;18.55;;;8.50;;
69226;SDS011;56334;52.398;7.552;2024-02-26T11:11:38;22.67;;;10.18;;
69226;SDS011;56334;52.398;7.552;2024-02-26T11:14:05;24.10;;;10.73;;
69226;SDS011;56334;52.398;7.552;2024-02-26T11:16:35;21.67;;;8.82;;
69226;SDS011;56334;52.398;7.552;2024-02-26T11:19:02;19.88;;;9.30;;
69226;SDS011;56334;52.398;7.552;2024-02-26T11:21:28;21.58;;;9.93;;
69226;SDS011;56334;52.398;7.552;2024-02-26T11:24:14;24.08;;;10.68;;
69226;SDS011;56334;52.398;7.552;2024-02-26T11:26:46;20.27;;;8.68;;
69226;SDS011;56334;52.398;7.552;2024-02-26T11:29:14;20.15;;;7.82;;
69226;SDS011;56334;52.398;7.552;2024-02-26T11:31:42;19.90;;;9.00;;
69226;SDS011;56334;52.398;7.552;2024-02-26T11:34:08;20.45;;;8.35;;
69226;SDS011;56334;52.398;7.552;2024-02-26T11:36:34;20.10;;;8.63;;
69226;SDS011;56334;52.398;7.552;2024-02-26T11:39:03;19.33;;;9.07;;
69226;SDS011;56334;52.398;7.552;2024-02-26T11:41:29;19.85;;;8.45;;
69226;SDS011;56334;52.398;7.552;2024-02-26T11:44:00;22.92;;;9.43;;
69226;SDS011;56334;52.398;7.552;2024-02-26T11:46:27;20.58;;;8.55;;
69226;SDS011;56334;52.398;7.552;2024-02-26T11:48:56;19.13;;;8.55;;
69226;SDS011;56334;52.398;7.552;2024-02-26T11:51:25;18.92;;;8.68;;
69226;SDS011;56334;52.398;7.552;2024-02-26T11:53:52;18.55;;;7.65;;
69226;SDS011;56334;52.398;7.552;2024-02-26T11:59:05;18.02;;;7.55;;
69226;SDS011;56334;52.398;7.552;2024-02-26T12:01:46;19.35;;;7.93;;
69226;SDS011;56334;52.398;7.552;2024-02-26T12:04:23;19.90;;;8.35;;
69226;SDS011;56334;52.398;7.552;2024-02-26T12:09:45;20.17;;;7.85;;
69226;SDS011;56334;52.398;7.552;2024-02-26T12:12:13;18.15;;;7.93;;
69226;SDS011;56334;52.398;7.552;2024-02-26T12:14:52;19.33;;;8.60;;
69226;SDS011;56334;52.398;7.552;2024-02-26T12:17:22;17.52;;;8.00;;
69226;SDS011;56334;52.398;7.552;2024-02-26T12:19:49;20.58;;;8.23;;
69226;SDS011;56334;52.398;7.552;2024-02-26T12:22:16;18.30;;;7.47;;
69226;SDS011;56334;52.398;7.552;2024-02-26T12:24:43;18.25;;;7.50;;
69226;SDS011;56334;52.398;7.552;2024-02-26T12:27:11;17.50;;;7.25;;
69226;SDS011;56334;52.398;7.552;2024-02-26T12:29:37;16.55;;;6.82;;
69226;SDS011;56334;52.398;7.552;2024-02-26T12:32:04;17.02;;;7.40;;
69226;SDS011;56334;52.398;7.552;2024-02-26T12:34:30;18.13;;;7.80;;
69226;SDS011;56334;52.398;7.552;2024-02-26T12:36:57;17.05;;;7.53;;
69226;SDS011;56334;52.398;7.552;2024-02-26T12:39:23;16.95;;;7.10;;
69226;SDS011;56334;52.398;7.552;2024-02-26T12:41:50;20.02;;;7.80;;
69226;SDS011;56334;52.398;7.552;2024-02-26T12:44:16;16.95;;;7.38;;
69226;SDS011;56334;52.398;7.552;2024-02-26T12:46:42;16.20;;;7.75;;
69226;SDS011;56334;52.398;7.552;2024-02-26T12:49:08;17.33;;;7.47;;
69226;SDS011;56334;52.398;7.552;2024-02-26T12:51:40;15.30;;;7.03;;
69226;SDS011;56334;52.398;7.552;2024-02-26T12:54:06;16.92;;;7.68;;
69226;SDS011;56334;52.398;7.552;2024-02-26T12:56:33;16.42;;;6.75;;
69226;SDS011;56334;52.398;7.552;2024-02-26T12:58:59;17.08;;;7.38;;
69226;SDS011;56334;52.398;7.552;2024-02-26T13:01:26;16.55;;;6.53;;
69226;SDS011;56334;52.398;7.552;2024-02-26T13:03:52;16.30;;;7.13;;
69226;SDS011;56334;52.398;7.552;2024-02-26T13:06:18;18.25;;;7.13;;
69226;SDS011;56334;52.398;7.552;2024-02-26T13:08:46;16.10;;;6.95;;
69226;SDS011;56334;52.398;7.552;2024-02-26T13:11:13;16.08;;;6.68;;
69226;SDS011;56334;52.398;7.552;2024-02-26T13:13:39;15.68;;;6.72;;
69226;SDS011;56334;52.398;7.552;2024-02-26T13:16:05;16.63;;;7.28;;
69226;SDS011;56334;52.398;7.552;2024-02-26T13:18:33;17.00;;;7.15;;
69226;SDS011;56334;52.398;7.552;2024-02-26T13:21:32;16.10;;;6.78;;
69226;SDS011;56334;52.398;7.552;2024-02-26T13:23:53;17.83;;;7.13;;
69226;SDS011;56334;52.398;7.552;2024-02-26T13:26:21;17.90;;;8.30;;
69226;SDS011;56334;52.398;7.552;2024-02-26T13:28:59;29.38;;;14.55;;
69226;SDS011;56334;52.398;7.552;2024-02-26T13:31:25;25.90;;;12.82;;
69226;SDS011;56334;52.398;7.552;2024-02-26T13:33:51;25.35;;;12.65;;
69226;SDS011;56334;52.398;7.552;2024-02-26T13:36:20;21.52;;;10.55;;
69226;SDS011;56334;52.398;7.552;2024-02-26T13:38:52;17.27;;;8.05;;
69226;SDS011;56334;52.398;7.552;2024-02-26T13:41:19;17.17;;;8.18;;
69226;SDS011;56334;52.398;7.552;2024-02-26T13:43:46;16.92;;;7.82;;
69226;SDS011;56334;52.398;7.552;2024-02-26T13:46:12;43.00;;;20.90;;
69226;SDS011;56334;52.398;7.552;2024-02-26T13:48:40;19.17;;;8.45;;
69226;SDS011;56334;52.398;7.552;2024-02-26T13:51:06;29.25;;;13.70;;
69226;SDS011;56334;52.398;7.552;2024-02-26T13:53:32;33.38;;;14.32;;
69226;SDS011;56334;52.398;7.552;2024-02-26T13:55:58;33.47;;;14.32;;
69226;SDS011;56334;52.398;7.552;2024-02-26T13:58:26;39.35;;;16.25;;
69226;SDS011;56334;52.398;7.552;2024-02-26T14:00:52;39.50;;;18.33;;
69226;SDS011;56334;52.398;7.552;2024-02-26T14:03:19;26.52;;;12.57;;
69226;SDS011;56334;52.398;7.552;2024-02-26T14:05:45;30.63;;;14.10;;
69226;SDS011;56334;52.398;7.552;2024-02-26T14:08:12;20.40;;;8.73;;
69226;SDS011;56334;52.398;7.552;2024-02-26T14:10:38;21.27;;;9.30;;
69226;SDS011;56334;52.398;7.552;2024-02-26T14:13:04;22.30;;;10.25;;
69226;SDS011;56334;52.398;7.552;2024-02-26T14:15:30;19.23;;;9.15;;
69226;SDS011;56334;52.398;7.552;2024-02-26T14:17:57;19.23;;;8.90;;
69226;SDS011;56334;52.398;7.552;2024-02-26T14:20:23;16.65;;;7.05;;
69226;SDS011;56334;52.398;7.552;2024-02-26T14:22:50;17.67;;;8.25;;
69226;SDS011;56334;52.398;7.552;2024-02-26T14:25:18;17.90;;;8.02;;
69226;SDS011;56334;52.398;7.552;2024-02-26T14:27:44;16.65;;;7.57;;
69226;SDS011;56334;52.398;7.552;2024-02-26T14:30:11;20.05;;;9.25;;
69226;SDS011;56334;52.398;7.552;2024-02-26T14:32:37;18.05;;;8.35;;
69226;SDS011;56334;52.398;7.552;2024-02-26T14:35:07;17.85;;;8.80;;
69226;SDS011;56334;52.398;7.552;2024-02-26T14:37:34;19.45;;;8.55;;
69226;SDS011;56334;52.398;7.552;2024-02-26T14:40:00;19.75;;;8.45;;